createdAt,value
2023-05-06T00:02:43.184Z,1016.4
2023-05-06T00:08:49.242Z,1016.3
2023-05-06T00:14:55.047Z,1016.3
2023-05-06T00:20:59.599Z,1016.3
2023-05-06T00:27:05.577Z,1016.2
2023-05-06T00:33:10.819Z,1016.2
2023-05-06T00:39:16.292Z,1016.2
2023-05-06T00:45:22.715Z,1016.2
2023-05-06T00:51:28.658Z,1016.2
2023-05-06T00:57:33.929Z,1016.1
2023-05-06T01:03:40.066Z,1016.2
2023-05-06T01:09:45.778Z,1016.2
2023-05-06T01:15:51.979Z,1016.1
2023-05-06T01:21:56.995Z,1016.1
2023-05-06T01:28:02.926Z,1016.1
2023-05-06T01:34:07.508Z,1016.1
2023-05-06T01:40:13.656Z,1016.1
2023-05-06T01:46:18.642Z,1016.1
2023-05-06T01:52:24.993Z,1016.1
2023-05-06T01:58:30.363Z,1016.2
2023-05-06T02:04:36.223Z,1016.2
2023-05-06T02:10:43.373Z,1016.1
2023-05-06T02:16:48.782Z,1016.2
2023-05-06T02:22:54.702Z,1016.2
2023-05-06T02:28:59.716Z,1016.3
2023-05-06T02:35:05.854Z,1016.2
2023-05-06T02:41:12.448Z,1016.2
2023-05-06T02:47:17.913Z,1016.2
2023-05-06T02:53:23.606Z,1016.1
2023-05-06T02:59:29.767Z,1016
2023-05-06T03:05:35.571Z,1016
2023-05-06T03:11:41.179Z,1016
2023-05-06T03:17:47.192Z,1016
2023-05-06T03:23:52.168Z,1015.9
2023-05-06T03:29:58.465Z,1015.9
2023-05-06T03:36:03.893Z,1015.9
2023-05-06T03:42:11.101Z,1016
2023-05-06T03:48:16.404Z,1016
2023-05-06T03:54:22.378Z,1015.9
2023-05-06T04:00:27.217Z,1015.8
2023-05-06T04:06:33.336Z,1015.9
2023-05-06T04:12:38.616Z,1015.9
2023-05-06T04:18:44.148Z,1016
2023-05-06T04:24:50.670Z,1016.1
2023-05-06T04:30:56.234Z,1016.2
2023-05-06T04:37:02.287Z,1016.2
2023-05-06T04:43:08.203Z,1016.3
2023-05-06T04:49:14.226Z,1016.3
2023-05-06T04:55:19.556Z,1016.4
2023-05-06T05:01:25.626Z,1016.3
2023-05-06T05:07:31.725Z,1016.3
2023-05-06T05:13:37.578Z,1016.4
2023-05-06T05:19:43.294Z,1016.5
2023-05-06T05:25:49.119Z,1016.5
2023-05-06T05:31:54.638Z,1016.5
2023-05-06T05:38:00.454Z,1016.5
2023-05-06T05:44:05.777Z,1016.6
2023-05-06T05:50:11.191Z,1016.7
2023-05-06T05:56:16.924Z,1016.6
2023-05-06T06:02:23.447Z,1016.6
2023-05-06T06:08:29.758Z,1016.7
2023-05-06T06:14:35.343Z,1016.7
2023-05-06T06:20:40.894Z,1016.7
2023-05-06T06:26:46.310Z,1016.8
2023-05-06T06:32:52.252Z,1016.9
2023-05-06T06:38:57.818Z,1016.9
2023-05-06T06:45:03.557Z,1016.9
2023-05-06T06:51:09.781Z,1017
2023-05-06T06:57:15.735Z,1017
2023-05-06T07:03:21.164Z,1017
2023-05-06T07:09:26.851Z,1017
2023-05-06T07:15:32.241Z,1017
2023-05-06T07:21:38.429Z,1016.9
2023-05-06T07:27:44.253Z,1017
2023-05-06T07:33:50.179Z,1017.1
2023-05-06T07:39:55.605Z,1017.1
2023-05-06T07:46:01.565Z,1017.1
2023-05-06T07:52:06.944Z,1017.3
2023-05-06T07:58:12.477Z,1017.3
2023-05-06T08:04:18.909Z,1017.3
2023-05-06T08:10:24.641Z,1017.4
2023-05-06T08:16:30.682Z,1017.4
2023-05-06T08:22:36.218Z,1017.5
2023-05-06T08:28:42.175Z,1017.4
2023-05-06T08:34:47.405Z,1017.4
2023-05-06T08:40:53.336Z,1017.5
2023-05-06T08:46:59.187Z,1017.6
2023-05-06T08:53:05.104Z,1017.5
2023-05-06T08:59:11.545Z,1017.5
2023-05-06T09:05:16.747Z,1017.5
2023-05-06T09:11:22.637Z,1017.4
2023-05-06T09:17:28.320Z,1017.4
2023-05-06T09:23:34.178Z,1017.4
2023-05-06T09:29:39.018Z,1017.4
2023-05-06T09:35:45.119Z,1017.4
2023-05-06T09:41:50.170Z,1017.4
2023-05-06T09:47:55.465Z,1017.3
2023-05-06T09:54:01.640Z,1017.3
2023-05-06T10:00:07.477Z,1017.2
2023-05-06T10:06:13.617Z,1017.2
2023-05-06T10:12:20.114Z,1017.2
2023-05-06T10:18:26.410Z,1017.2
2023-05-06T10:24:32.038Z,1017.1
2023-05-06T10:30:37.533Z,1017
2023-05-06T10:36:44.134Z,1017
2023-05-06T10:42:50.510Z,1016.9
2023-05-06T10:48:56.490Z,1016.8
2023-05-06T10:55:02.903Z,1016.8
2023-05-06T11:01:08.591Z,1016.7
2023-05-06T11:07:14.730Z,1016.7
2023-05-06T11:13:20.322Z,1016.6
2023-05-06T11:19:26.221Z,1016.6
2023-05-06T11:25:32.392Z,1016.6
2023-05-06T11:31:38.236Z,1016.6
2023-05-06T11:37:44.158Z,1016.6
2023-05-06T11:43:50.364Z,1016.6
2023-05-06T11:49:55.578Z,1016.5
2023-05-06T11:56:01.513Z,1016.5
2023-05-06T12:02:07.512Z,1016.4
2023-05-06T12:08:27.691Z,1016.5
2023-05-06T12:14:34.372Z,1016.4
2023-05-06T12:20:39.735Z,1016.4
2023-05-06T12:26:45.961Z,1016.4
2023-05-06T12:32:51.406Z,1016.3
2023-05-06T12:38:56.950Z,1016.2
2023-05-06T12:45:03.069Z,1016.2
2023-05-06T12:51:09.067Z,1016.2
2023-05-06T12:57:15.040Z,1016.2
2023-05-06T13:03:22.294Z,1016.2
2023-05-06T13:09:28.427Z,1016.1
2023-05-06T13:15:34.439Z,1016
2023-05-06T13:21:40.414Z,1016
2023-05-06T13:27:45.622Z,1015.9
2023-05-06T13:33:51.211Z,1015.9
2023-05-06T13:39:57.158Z,1015.8
2023-05-06T13:46:02.360Z,1015.8
2023-05-06T13:52:10.102Z,1015.7
2023-05-06T13:58:16.081Z,1015.6
2023-05-06T14:04:21.673Z,1015.6
2023-05-06T14:10:27.648Z,1015.6
2023-05-06T14:16:34.050Z,1015.6
2023-05-06T14:22:39.665Z,1015.6
2023-05-06T14:28:45.183Z,1015.5
2023-05-06T14:34:51.366Z,1015.4
2023-05-06T14:40:59.370Z,1015.5
2023-05-06T14:47:05.567Z,1015.5
2023-05-06T14:53:10.946Z,1015.4
2023-05-06T14:59:17.145Z,1015.4
2023-05-06T15:05:22.947Z,1015.4
2023-05-06T15:11:29.320Z,1015.3
2023-05-06T15:17:35.533Z,1015.3
2023-05-06T15:23:41.553Z,1015.3
2023-05-06T15:29:47.898Z,1015.4
2023-05-06T15:35:53.690Z,1015.4
2023-05-06T15:41:59.039Z,1015.5
2023-05-06T15:48:05.224Z,1015.4
2023-05-06T15:54:11.188Z,1015.4
2023-05-06T16:00:17.375Z,1015.3
2023-05-06T16:06:23.565Z,1015.3
2023-05-06T16:12:29.533Z,1015.3
2023-05-06T16:18:35.349Z,1015.3
2023-05-06T16:24:42.124Z,1015.3
2023-05-06T16:30:47.143Z,1015.3
2023-05-06T16:36:52.646Z,1015.3
2023-05-06T16:42:58.620Z,1015.3
2023-05-06T16:49:03.658Z,1015.3
2023-05-06T16:55:09.460Z,1015.3
2023-05-06T17:01:15.172Z,1015.3
2023-05-06T17:07:20.993Z,1015.3
2023-05-06T17:13:26.582Z,1015.3
2023-05-06T17:19:31.819Z,1015.2
2023-05-06T17:25:37.856Z,1015.2
2023-05-06T17:31:43.481Z,1015.2
2023-05-06T17:37:49.415Z,1015.2
2023-05-06T17:43:55.441Z,1015.3
2023-05-06T17:50:00.606Z,1015.3
2023-05-06T17:56:06.344Z,1015.3
2023-05-06T18:02:12.523Z,1015.4
2023-05-06T18:08:17.910Z,1015.4
2023-05-06T18:14:24.077Z,1015.4
2023-05-06T18:20:29.938Z,1015.5
2023-05-06T18:26:46.140Z,1015.5
2023-05-06T18:32:56.581Z,1015.5
2023-05-06T18:39:02.609Z,1015.5
2023-05-06T18:45:09.040Z,1015.5
2023-05-06T18:51:15.938Z,1015.6
2023-05-06T18:57:22.149Z,1015.6
2023-05-06T19:03:27.773Z,1015.7
2023-05-06T19:09:33.940Z,1015.6
2023-05-06T19:15:39.739Z,1015.7
2023-05-06T19:21:45.457Z,1015.7
2023-05-06T19:27:51.476Z,1015.6
2023-05-06T19:33:57.231Z,1015.6
2023-05-06T19:40:02.780Z,1015.6
2023-05-06T19:46:08.476Z,1015.7
2023-05-06T19:52:14.566Z,1015.7
2023-05-06T19:58:20.595Z,1015.7
2023-05-06T20:04:26.733Z,1015.7
2023-05-06T20:10:32.551Z,1015.6
2023-05-06T20:16:38.327Z,1015.6
2023-05-06T20:22:44.714Z,1015.6
2023-05-06T20:28:49.901Z,1015.6
2023-05-06T20:34:55.872Z,1015.6
2023-05-06T20:41:01.226Z,1015.6
2023-05-06T20:47:06.962Z,1015.6
2023-05-06T20:53:12.736Z,1015.6
2023-05-06T20:59:18.711Z,1015.6
2023-05-06T21:05:23.954Z,1015.6
2023-05-06T21:11:30.674Z,1015.6
2023-05-06T21:17:36.341Z,1015.6
2023-05-06T21:23:42.691Z,1015.6
2023-05-06T21:29:48.011Z,1015.6
2023-05-06T21:35:54.397Z,1015.6
2023-05-06T21:41:59.580Z,1015.6
2023-05-06T21:48:05.600Z,1015.6
2023-05-06T21:54:11.544Z,1015.5
2023-05-06T22:00:17.730Z,1015.6
2023-05-06T22:06:23.087Z,1015.6
2023-05-06T22:12:29.532Z,1015.6
2023-05-06T22:18:35.693Z,1015.6
2023-05-06T22:24:41.840Z,1015.6
2023-05-06T22:30:48.031Z,1015.5
2023-05-06T22:36:53.291Z,1015.5
2023-05-06T22:42:59.189Z,1015.4
2023-05-06T22:49:04.814Z,1015.3
2023-05-06T22:55:11.404Z,1015.4
2023-05-06T23:01:17.340Z,1015.3
2023-05-06T23:07:23.929Z,1015.3
2023-05-06T23:13:29.759Z,1015.3
2023-05-06T23:19:35.542Z,1015.2
2023-05-06T23:25:41.484Z,1015.2
2023-05-06T23:31:46.918Z,1015.2
2023-05-06T23:37:53.033Z,1015.2
2023-05-06T23:43:58.401Z,1015.2
2023-05-06T23:50:04.581Z,1015.2
2023-05-06T23:56:10.359Z,1015.3
